Latest Weather Observations for Busselton Airport

IDW60801

Issued at 7:32 am WST Friday 12 February 2016 (issued every 30 minutes, with the page automatically refreshed every 10 minutes)

About weather observations | Map of weather stations | Latest weather observations for WA | Other Formats
Station Details ID: 009603 Name: BUSSELTON AERO Lat: -33.69 Lon: 115.40 Height: 16.3 m
Data from the previous 72 hours. | See also: Recent months at Busselton Airport
Date/Time
WST
Temp
°C
App
Temp
°C
Dew
Point
Rel
Hum
%
Delta-T
°C
Wind Press
QNH
hPa
Press
MSL
hPa
Rain
since 9 am
mm
Dir
 
Spd
km/h
Gust
km/h
Spd
kts
Gust
kts
12/07:30am 19.8 18.1 13.5 67 3.6 SSE 15 20 8 11 1018.8 1018.8 0.0
12/07:00am 19.0 17.8 14.1 73 2.8 S 13 20 7 11 1018.8 1018.8 0.0
12/06:30am 18.3 17.9 14.2 77 2.4 SSE 9 17 5 9 1018.3 1018.3 0.0
12/06:00am 17.9 17.5 14.2 79 2.1 S 9 11 5 6 1017.7 1017.7 0.0
12/05:30am 17.8 17.0 14.1 79 2.1 S 11 15 6 8 1017.3 1017.3 0.0
12/05:00am 17.6 16.9 14.3 81 1.9 S 11 15 6 8 1016.7 1016.7 0.0
12/04:30am 17.7 16.2 14.2 80 2.0 S 15 20 8 11 1016.5 1016.5 0.0
12/04:00am 17.6 16.5 14.3 81 1.9 S 13 17 7 9 1016.0 1016.0 0.0
12/03:30am 17.7 16.2 14.2 80 2.0 SSE 15 19 8 10 1015.6 1015.6 0.0
12/03:00am 18.2 15.9 14.7 80 2.0 S 20 30 11 16 1015.3 1015.3 0.0
12/02:30am 18.2 16.2 14.9 81 1.9 S 19 24 10 13 1015.1 1015.1 0.0
12/02:00am 18.4 16.4 14.9 80 2.0 S 19 24 10 13 1015.2 1015.2 0.0
12/01:30am 18.6 16.0 14.9 79 2.2 S 22 28 12 15 1015.5 1015.5 0.0
12/01:00am 18.6 16.5 15.1 80 2.0 S 20 28 11 15 1015.7 1015.7 0.0
12/12:30am 18.7 15.9 15.4 81 1.9 S 24 32 13 17 1015.8 1015.8 0.0
12/12:00am 18.7 16.4 15.8 83 1.7 S 22 30 12 16 1015.8 1015.8 0.0
 
Date/Time
WST
Temp
°C
App
Temp
°C
Dew
Point
Rel
Hum
%
Delta-T
°C
Wind Press
QNH
hPa
Press
MSL
hPa
Rain
since 9 am
mm
Dir
 
Spd
km/h
Gust
km/h
Spd
kts
Gust
kts
11/11:30pm 19.0 17.4 16.0 83 1.8 SSW 19 24 10 13 1016.0 1016.0 0.0
11/11:00pm 19.2 17.1 16.1 82 1.8 S 22 28 12 15 1015.8 1015.8 0.0
11/10:30pm 19.1 17.5 16.0 82 1.8 S 19 24 10 13 1015.7 1015.7 0.0
11/10:00pm 19.5 17.8 16.2 81 2.0 S 20 28 11 15 1015.6 1015.6 0.0
11/09:30pm 19.8 18.2 16.4 81 2.0 S 20 28 11 15 1015.5 1015.5 0.0
11/09:00pm 19.9 17.5 16.3 80 2.2 SSW 24 32 13 17 1015.3 1015.3 0.0
11/08:30pm 20.1 17.7 16.3 79 2.3 S 24 32 13 17 1014.7 1014.7 0.0
11/08:00pm 20.9 17.3 16.3 75 2.8 SSW 30 35 16 19 1014.7 1014.7 0.0
11/07:30pm 22.1 19.6 16.1 69 3.6 SSW 24 32 13 17 1014.0 1014.0 0.0
11/07:00pm 23.6 20.1 16.4 64 4.4 SSW 30 39 16 21 1013.4 1013.4 0.0
11/06:30pm 25.5 22.8 16.6 58 5.5 S 26 33 14 18 1012.8 1012.8 0.0
11/06:00pm 27.3 24.5 17.2 54 6.3 SSW 28 33 15 18 1012.1 1012.1 0.0
11/05:30pm 29.5 26.5 17.7 49 7.5 SSW 30 35 16 19 1011.6 1011.6 0.0
11/05:00pm 31.7 28.8 17.9 43 8.9 SSW 30 35 16 19 1011.0 1011.0 0.0
11/04:30pm 32.6 32.2 18.0 41 9.4 NW 17 20 9 11 1010.5 1010.5 0.0
11/04:00pm 31.8 31.8 18.0 43 8.9 NW 15 20 8 11 1010.3 1010.3 0.0
11/03:30pm 31.1 30.3 18.1 46 8.4 NNW 19 24 10 13 1010.6 1010.6 0.0
11/03:00pm 33.0 32.8 18.4 42 9.5 NNW 17 24 9 13 1010.8 1010.8 0.0
11/02:30pm 31.3 30.5 17.9 44 8.6 NW 19 24 10 13 1011.2 1011.2 0.0
11/02:00pm 32.1 31.6 19.0 45 8.6 NNW 20 24 11 13 1011.4 1011.4 0.0
11/01:30pm 34.1 34.5 17.3 36 10.8 WNW 11 17 6 9 1011.7 1011.7 0.0
11/01:00pm 33.4 34.2 16.3 36 10.8 SSW 7 17 4 9 1011.9 1011.9 0.0
11/12:30pm 32.6 32.9 16.0 36 10.4 SW 9 19 5 10 1012.0 1012.0 0.0
11/12:00pm 30.9 31.2 16.9 43 8.8 SW 11 17 6 9 1012.2 1012.2 0.0
11/11:30am 29.8 30.1 16.9 45 8.1 SSW 11 20 6 11 1012.8 1012.8 0.0
11/11:00am 28.9 29.5 16.8 48 7.6 SSE 9 19 5 10 1013.1 1013.1 0.0
11/10:30am 28.0 28.3 16.9 51 6.9 SSE 11 15 6 8 1013.4 1013.4 0.0
11/10:00am 26.7 27.2 16.6 54 6.3 SSE 9 15 5 8 1013.6 1013.6 0.0
11/09:30am 25.7 25.7 17.1 59 5.3 S 13 20 7 11 1013.7 1013.7 0.0
11/09:00am 24.2 23.5 16.5 62 4.7 S 15 22 8 12 1013.7 1013.7 0.0
11/08:30am 23.3 22.1 16.1 64 4.4 SSE 17 22 9 12 1013.7 1013.7 0.0
11/08:00am 22.4 21.2 16.2 68 3.8 SSE 17 22 9 12 1013.5 1013.5 0.0
11/07:30am 20.8 19.6 16.2 75 2.8 SSE 17 22 9 12 1013.6 1013.6 0.0
11/07:00am 19.5 18.8 16.5 83 1.8 SSE 15 19 8 10 1013.4 1013.4 0.0
11/06:30am 18.4 17.3 16.4 88 1.2 SSE 17 19 9 10 1013.4 1013.4 0.0
11/06:00am 17.6 16.8 16.1 91 0.9 S 15 17 8 9 1013.1 1013.1 0.0
11/05:30am 17.7 17.2 16.0 90 1.0 S 13 17 7 9 1012.9 1012.9 0.0
11/05:00am 17.9 16.7 16.2 90 1.0 S 17 22 9 12 1012.5 1012.5 0.0
11/04:30am 18.0 17.0 16.7 92 0.8 S 17 19 9 10 1012.5 1012.5 0.0
11/04:00am 17.8 17.1 16.5 92 0.8 S 15 19 8 10 1012.4 1012.4 0.0
11/03:30am 18.0 17.0 16.5 91 0.9 S 17 20 9 11 1012.2 1012.2 0.0
11/03:00am 18.0 17.0 16.5 91 0.9 SSW 17 19 9 10 1011.9 1011.9 0.0
11/02:30am 18.4 16.9 16.4 88 1.2 SSW 19 20 10 11 1012.0 1012.0 0.0
11/02:00am 18.9 17.6 16.7 87 1.3 SSW 19 22 10 12 1012.2 1012.2 0.0
11/01:30am 19.2 18.7 17.0 87 1.3 S 15 22 8 12 1012.3 1012.3 0.0
11/01:00am 19.5 19.1 16.3 82 1.9 S 13 13 7 7 1012.5 1012.5 0.0
11/12:30am 19.7 19.8 16.5 82 1.9 S 11 13 6 7 1012.5 1012.5 0.0
11/12:00am 20.3 20.5 16.7 80 2.2 S 11 13 6 7 1012.7 1012.7 0.0
 
Date/Time
WST
Temp
°C
App
Temp
°C
Dew
Point
Rel
Hum
%
Delta-T
°C
Wind Press
QNH
hPa
Press
MSL
hPa
Rain
since 9 am
mm
Dir
 
Spd
km/h
Gust
km/h
Spd
kts
Gust
kts
10/11:30pm 21.4 20.9 17.0 76 2.7 SSW 15 17 8 9 1012.8 1012.8 0.0
10/11:00pm 21.8 21.4 17.2 75 2.8 SSW 15 17 8 9 1013.0 1013.0 0.0
10/10:30pm 22.5 21.9 17.6 74 3.0 SSW 17 20 9 11 1013.3 1013.3 0.0
10/10:00pm 22.7 22.6 17.8 74 3.0 SSW 15 17 8 9 1013.3 1013.3 0.0
10/09:30pm 22.7 23.2 17.4 72 3.3 SW 11 15 6 8 1013.4 1013.4 0.0
10/09:00pm 23.1 23.1 17.3 70 3.6 SW 13 15 7 8 1013.3 1013.3 0.0
10/08:30pm 24.8 25.1 18.0 66 4.3 SW 13 17 7 9 1013.0 1013.0 0.0
10/08:00pm 25.7 26.1 18.1 63 4.8 SW 13 15 7 8 1012.8 1012.8 0.0
10/07:30pm 27.4 27.4 18.1 57 5.9 SSW 15 19 8 10 1012.5 1012.5 0.0
10/07:00pm 29.6 28.8 18.4 51 7.2 SSW 20 24 11 13 1012.2 1012.2 0.0
10/06:30pm 31.6 30.9 18.6 46 8.4 SSW 20 24 11 13 1012.0 1012.0 0.0
10/06:00pm 32.9 31.8 18.7 43 9.3 SSW 22 28 12 15 1011.7 1011.7 0.0
10/05:30pm 34.2 33.1 18.7 40 10.1 SSW 22 28 12 15 1011.5 1011.5 0.0
10/05:00pm 34.7 33.3 18.7 38 10.5 SSW 24 30 13 16 1011.4 1011.4 0.0
10/04:30pm 35.4 34.2 18.5 37 11.1 SW 22 30 12 16 1011.3 1011.3 0.0
10/04:00pm 36.6 35.6 15.7 29 13.2 WNW 15 20 8 11 1011.2 1011.2 0.0
10/03:30pm 36.9 36.4 14.8 26 13.8 WNW 11 19 6 10 1011.5 1011.5 0.0
10/03:00pm 36.1 36.1 16.3 31 12.6 NW 11 17 6 9 1011.8 1011.8 0.0
10/02:30pm 35.8 35.1 16.5 31 12.3 NNW 15 24 8 13 1012.1 1012.1 0.0
10/02:00pm 35.9 35.6 14.5 27 13.3 NE 9 15 5 8 1012.5 1012.5 0.0
10/01:30pm 34.7 34.7 15.1 31 12.2 ESE 9 20 5 11 1012.8 1012.8 0.0
10/01:00pm 33.9 33.2 15.4 33 11.5 ESE 13 22 7 12 1013.2 1013.2 0.0
10/12:30pm 32.7 32.1 15.7 36 10.6 S 13 20 7 11 1013.6 1013.6 0.0
10/12:00pm 32.0 31.7 15.5 37 10.2 ESE 11 19 6 10 1013.8 1013.8 0.0
10/11:30am 30.4 29.1 14.9 39 9.5 SE 15 24 8 13 1014.2 1014.2 0.0
10/11:00am 30.1 28.9 16.1 42 8.7 SE 17 30 9 16 1014.6 1014.6 0.0
10/10:30am 28.0 25.6 15.3 46 7.7 ESE 22 28 12 15 1014.9 1014.9 0.0
10/10:00am 26.8 24.8 15.5 50 6.9 SE 20 28 11 15 1015.2 1015.2 0.0
10/09:30am 26.0 24.2 16.0 54 6.1 SE 20 28 11 15 1015.4 1015.4 0.0
10/09:00am 24.3 22.6 16.3 61 4.9 SE 20 28 11 15 1015.6 1015.6 -
10/08:30am 22.6 20.3 15.7 65 4.1 SE 22 32 12 17 1015.8 1015.8 -
10/08:00am 21.9 20.7 16.0 69 3.5 SE 17 24 9 13 1016.1 1016.1 -
10/07:30am 20.2 18.2 15.6 75 2.7 SSE 20 26 11 14 1016.2 1016.2 -
10/07:00am 19.2 19.1 15.9 81 2.0 S 11 15 6 8 1016.2 1016.2 -
10/06:30am 18.1 17.8 15.5 85 1.5 S 11 15 6 8 1016.0 1016.0 -
10/06:00am 17.4 16.8 15.6 89 1.1 SSE 13 15 7 8 1015.4 1015.4 -
10/05:30am 16.9 15.9 14.7 87 1.3 SSE 13 15 7 8 1015.1 1015.1 -
10/05:00am 17.5 17.1 15.1 86 1.4 SSE 11 15 6 8 1014.9 1014.9 -
10/04:30am 18.1 17.0 15.4 84 1.6 SSE 15 19 8 10 1014.9 1014.9 -
10/04:00am 18.1 17.0 15.4 84 1.6 SE 15 19 8 10 1014.8 1014.8 -
10/03:30am 18.4 17.0 15.5 83 1.7 SSE 17 20 9 11 1014.5 1014.5 -
10/03:00am 18.5 17.9 15.6 83 1.7 SSE 13 17 7 9 1014.6 1014.6 0.0
10/02:30am 18.6 17.6 15.7 83 1.7 S 15 17 8 9 1014.5 1014.5 -
10/02:00am 18.7 18.0 15.4 81 1.9 SSE 13 20 7 11 1014.6 1014.6 -
10/01:30am 19.2 18.7 15.9 81 2.0 SSE 13 19 7 10 1014.5 1014.5 -
10/01:00am 19.7 18.1 16.0 79 2.2 SSE 19 24 10 13 1014.6 1014.6 -
10/12:30am 19.9 18.4 16.2 79 2.2 SSE 19 24 10 13 1014.7 1014.7 -
10/12:00am 19.9 18.4 16.3 80 2.2 SSE 19 20 10 11 1014.8 1014.8 -
 
Date/Time
WST
Temp
°C
App
Temp
°C
Dew
Point
Rel
Hum
%
Delta-T
°C
Wind Press
QNH
hPa
Press
MSL
hPa
Rain
since 9 am
mm
Dir
 
Spd
km/h
Gust
km/h
Spd
kts
Gust
kts
09/11:30pm 20.5 19.2 16.7 79 2.3 SSE 19 24 10 13 1015.1 1015.1 -
09/11:00pm 20.5 19.5 16.7 79 2.3 SSE 17 20 9 11 1015.2 1015.2 -
09/10:30pm 20.5 19.0 16.7 79 2.3 S 20 24 11 13 1015.3 1015.3 -
09/10:00pm 20.9 19.4 16.7 77 2.5 S 20 24 11 13 1015.2 1015.2 -
09/09:30pm 21.6 20.2 17.0 75 2.8 S 20 24 11 13 1015.1 1015.1 -
09/09:00pm 22.2 20.8 17.1 73 3.1 S 20 26 11 14 1014.8 1014.8 0.0
09/08:30pm 22.8 21.5 17.3 71 3.4 S 20 24 11 13 1014.6 1014.6 -
09/08:00pm 23.7 22.4 17.2 67 4.0 S 20 26 11 14 1014.4 1014.4 -
09/07:30pm 24.9 23.9 17.6 64 4.6 S 19 24 10 13 1014.2 1014.2 -
09/07:00pm 26.5 24.7 17.8 58 5.5 S 24 32 13 17 1013.9 1013.9 -
09/06:30pm 28.1 26.6 17.6 53 6.6 S 22 32 12 17 1013.7 1013.7 -
09/06:00pm 29.4 27.9 17.6 49 7.5 S 22 28 12 15 1013.6 1013.6 -
09/05:30pm 30.2 27.8 18.3 49 7.6 SSW 28 32 15 17 1013.5 1013.5 -
09/05:00pm 32.1 30.1 18.3 44 8.9 S 26 30 14 16 1013.3 1013.3 -
09/04:30pm 32.9 30.5 18.3 42 9.5 S 28 32 15 17 1013.4 1013.4 -
09/04:00pm 34.2 32.6 18.3 39 10.3 SSW 24 32 13 17 1013.3 1013.3 -
09/03:30pm 34.6 32.4 17.8 37 10.9 SSW 26 32 14 17 1013.4 1013.4 -
09/03:00pm 35.6 33.8 17.8 35 11.5 SSW 24 32 13 17 1013.2 1013.2 -
09/02:30pm 36.5 35.3 17.6 32 12.3 SSW 20 28 11 15 1013.3 1013.3 -
09/02:00pm 36.8 36.6 15.8 28 13.3 S 11 17 6 9 1013.5 1013.5 -
09/01:30pm 36.8 37.2 15.3 28 13.5 S 7 17 4 9 1013.8 1013.8 -
09/01:00pm 36.8 35.2 10.2 20 15.5 NNW 9 17 5 9 1014.1 1014.1 -
09/12:30pm 35.9 35.8 13.4 26 13.7 SSE 6 11 3 6 1014.3 1014.3 -
09/12:00pm 35.5 34.8 13.1 26 13.6 E 9 13 5 7 1014.5 1014.5 -
09/11:30am 33.8 33.3 13.8 30 12.2 WSW 9 15 5 8 1015.0 1015.0 -
09/11:00am 33.3 33.4 14.4 32 11.6 SW 7 13 4 7 1015.1 1015.1 -
09/09:30am 27.4 27.2 16.7 52 6.7 S 13 19 7 10 1015.6 1015.6 0.0
09/09:00am 25.4 24.7 16.5 58 5.5 S 15 19 8 10 1015.7 1015.7 0.0
09/08:30am 24.2 23.0 17.0 64 4.4 SSE 19 22 10 12 1015.7 1015.7 0.0
09/08:00am 22.8 20.9 16.8 69 3.7 S 22 28 12 15 1015.8 1015.8 0.0

Other Formats:

Comma delimited format used in spreadsheet applications
http://www.bom.gov.au/fwo/IDW60801/IDW60801.95611.axf

JavaScript Object Notation format (JSON) in row-major order
http://www.bom.gov.au/fwo/IDW60801/IDW60801.95611.json